Time;durP1;ratioP1;P1;durP2;ratioP2;P2;SDS_P1;SDS_P2;PMS_P1;PMS_P2;Temp;Humidity;BMP_temperature;BMP_pressure;BME280_temperature;BME280_humidity;BME280_pressure;Samples;Min_cycle;Max_cycle;Signal;HPM_P1;HPM_P2
2024/01/06 00:01:14;;;;;;;1.40;1.23;;;5.40;99.90;;;;;;5077067;28;20445;-78
2024/01/06 00:03:41;;;;;;;5.13;2.93;;;5.40;99.90;;;;;;5077219;28;20429;-78
2024/01/06 00:06:08;;;;;;;1.07;1.07;;;5.40;99.90;;;;;;5077176;28;20480;-78
2024/01/06 00:08:34;;;;;;;1.43;1.10;;;5.40;99.90;;;;;;5077488;28;20483;-78
2024/01/06 00:11:02;;;;;;;2.13;1.20;;;5.40;99.90;;;;;;5077700;28;20444;-78
2024/01/06 00:13:29;;;;;;;1.00;1.00;;;5.40;99.90;;;;;;5077529;28;20453;-78
2024/01/06 00:15:56;;;;;;;2.80;1.53;;;5.40;99.90;;;;;;5077071;28;20437;-78
2024/01/06 00:18:24;;;;;;;1.07;0.67;;;5.30;99.90;;;;;;5077419;28;20468;-78
2024/01/06 00:20:50;;;;;;;1.40;1.30;;;5.30;99.90;;;;;;5077714;28;20445;-78
2024/01/06 00:23:17;;;;;;;1.93;1.20;;;5.30;99.90;;;;;;5077049;28;20898;-78
2024/01/06 00:25:44;;;;;;;1.33;1.20;;;5.30;99.90;;;;;;5077443;28;20452;-78
2024/01/06 00:28:10;;;;;;;0.80;0.80;;;5.30;99.90;;;;;;5076230;28;20473;-78
2024/01/06 00:30:37;;;;;;;1.40;1.20;;;5.30;99.90;;;;;;5076100;28;21067;-78
2024/01/06 00:33:04;;;;;;;2.17;0.90;;;5.30;99.90;;;;;;5076381;28;20475;-78
2024/01/06 00:35:32;;;;;;;1.53;0.70;;;5.30;99.90;;;;;;5075994;28;20445;-78
2024/01/06 00:38:00;;;;;;;1.03;1.00;;;5.30;99.90;;;;;;5076543;28;20465;-78
2024/01/06 00:40:27;;;;;;;1.60;0.60;;;5.30;99.90;;;;;;5077230;28;20436;-78
2024/01/06 00:42:53;;;;;;;0.63;0.60;;;5.20;99.90;;;;;;5075418;28;20453;-78
2024/01/06 00:45:20;;;;;;;0.80;0.80;;;5.30;99.90;;;;;;5075738;28;20447;-78
2024/01/06 00:47:47;;;;;;;0.70;0.70;;;5.30;99.90;;;;;;5075877;28;20473;-78
2024/01/06 00:50:14;;;;;;;0.77;0.77;;;5.20;99.90;;;;;;5074595;28;20487;-78
2024/01/06 00:52:42;;;;;;;0.70;0.70;;;5.20;99.90;;;;;;5074827;28;20433;-78
2024/01/06 00:55:09;;;;;;;2.17;0.83;;;5.20;99.90;;;;;;5081366;28;20453;-78
2024/01/06 00:57:36;;;;;;;4.13;0.93;;;5.20;99.90;;;;;;5092217;28;20464;-78
2024/01/06 01:00:03;;;;;;;3.27;0.73;;;5.20;99.90;;;;;;5083795;28;20441;-78
2024/01/06 01:02:30;;;;;;;3.03;0.70;;;5.20;99.90;;;;;;5075019;28;20954;-78
2024/01/06 01:04:57;;;;;;;1.20;1.10;;;5.20;99.90;;;;;;5074148;28;20499;-78
2024/01/06 01:07:24;;;;;;;1.37;0.93;;;5.20;99.90;;;;;;5074140;28;20965;-78
2024/01/06 01:09:52;;;;;;;1.00;0.87;;;5.20;99.90;;;;;;5074203;28;20477;-78
2024/01/06 01:12:19;;;;;;;6.37;0.90;;;5.20;99.90;;;;;;5074614;28;20496;-78
2024/01/06 01:14:45;;;;;;;1.77;0.67;;;5.20;99.90;;;;;;5074173;28;20445;-78
2024/01/06 01:17:12;;;;;;;1.07;0.60;;;5.20;99.90;;;;;;5074615;28;20453;-78
2024/01/06 01:19:39;;;;;;;1.00;0.90;;;5.20;99.90;;;;;;5074133;28;20445;-78
2024/01/06 01:22:06;;;;;;;0.47;0.47;;;5.20;99.90;;;;;;5074323;28;20449;-78
2024/01/06 01:24:32;;;;;;;0.70;0.50;;;5.20;99.90;;;;;;5074304;28;20452;-78
2024/01/06 01:27:00;;;;;;;1.13;0.63;;;5.10;99.90;;;;;;5073680;28;20441;-78
2024/01/06 01:29:27;;;;;;;0.50;0.50;;;5.10;99.90;;;;;;5074112;28;20483;-78
2024/01/06 01:31:54;;;;;;;0.40;0.40;;;5.10;99.90;;;;;;5073881;28;20453;-78
2024/01/06 01:34:20;;;;;;;0.50;0.40;;;5.10;99.90;;;;;;5073599;28;20440;-78
2024/01/06 01:36:47;;;;;;;1.33;0.50;;;5.10;99.90;;;;;;5074198;28;20444;-78
2024/01/06 01:39:14;;;;;;;2.20;0.60;;;5.10;99.90;;;;;;5074047;28;20461;-78
2024/01/06 01:41:41;;;;;;;0.40;0.40;;;5.10;99.90;;;;;;5077566;28;20440;-78
2024/01/06 01:44:09;;;;;;;1.33;0.50;;;5.10;99.90;;;;;;5076321;28;20502;-78
2024/01/06 01:46:37;;;;;;;0.50;0.30;;;5.10;99.90;;;;;;5075951;28;20448;-78
2024/01/06 01:49:05;;;;;;;1.77;0.40;;;5.10;99.90;;;;;;5075571;28;20477;-78
2024/01/06 01:51:34;;;;;;;0.40;0.40;;;5.10;99.90;;;;;;5075651;28;20953;-78
2024/01/06 01:54:02;;;;;;;0.50;0.40;;;5.20;99.90;;;;;;5075660;28;20437;-78
2024/01/06 01:56:33;;;;;;;2.37;0.50;;;5.20;99.90;;;;;;5075437;28;20437;-78
2024/01/06 01:59:02;;;;;;;0.50;0.40;;;5.10;99.90;;;;;;5075341;28;20461;-78
2024/01/06 02:01:30;;;;;;;0.47;0.43;;;5.10;99.90;;;;;;5075322;28;20452;-78
2024/01/06 02:03:58;;;;;;;1.53;0.50;;;5.10;99.90;;;;;;5075142;28;20810;-78
2024/01/06 02:06:25;;;;;;;0.30;0.30;;;5.20;99.90;;;;;;5075225;28;20480;-78
2024/01/06 02:08:51;;;;;;;0.60;0.60;;;5.20;99.90;;;;;;5074759;28;21000;-78
2024/01/06 02:11:18;;;;;;;1.80;0.77;;;5.20;99.90;;;;;;5074938;28;20476;-78
2024/01/06 02:13:45;;;;;;;0.40;0.30;;;5.20;99.90;;;;;;5075122;28;20453;-78
2024/01/06 02:16:11;;;;;;;0.40;0.30;;;5.20;99.90;;;;;;5075144;28;20451;-78
2024/01/06 02:18:39;;;;;;;1.73;0.90;;;5.20;99.90;;;;;;5074803;28;20453;-78
2024/01/06 02:21:07;;;;;;;0.63;0.40;;;5.20;99.90;;;;;;5074703;28;20499;-78
2024/01/06 02:23:37;;;;;;;0.40;0.40;;;5.20;99.90;;;;;;5074974;28;20445;-78
2024/01/06 02:26:04;;;;;;;0.40;0.40;;;5.20;99.90;;;;;;5075199;28;20799;-78
2024/01/06 02:28:30;;;;;;;0.60;0.60;;;5.30;99.90;;;;;;5075009;28;20460;-78
2024/01/06 02:30:57;;;;;;;0.83;0.63;;;5.30;99.90;;;;;;5074632;28;20472;-78
2024/01/06 02:33:24;;;;;;;0.53;0.53;;;5.20;99.90;;;;;;5074881;28;20452;-78
2024/01/06 02:35:51;;;;;;;1.53;0.70;;;5.20;99.90;;;;;;5074883;28;20476;-78
2024/01/06 02:38:17;;;;;;;1.00;0.70;;;5.20;99.90;;;;;;5075371;28;20977;-78
2024/01/06 02:40:45;;;;;;;0.70;0.40;;;5.20;99.90;;;;;;5078332;28;20471;-78
2024/01/06 02:43:12;;;;;;;0.50;0.40;;;5.20;99.90;;;;;;5077836;28;20494;-78
2024/01/06 02:45:39;;;;;;;0.93;0.60;;;5.20;99.90;;;;;;5078097;28;20930;-78
2024/01/06 02:48:06;;;;;;;0.70;0.50;;;5.20;99.90;;;;;;5078036;28;20562;-78
2024/01/06 02:50:32;;;;;;;0.50;0.50;;;5.20;99.90;;;;;;5077804;28;20480;-78
2024/01/06 02:52:59;;;;;;;0.93;0.50;;;5.20;99.90;;;;;;5077551;28;20433;-78
2024/01/06 02:55:26;;;;;;;0.50;0.50;;;5.20;99.90;;;;;;5077479;28;20440;-78
2024/01/06 02:57:54;;;;;;;0.60;0.47;;;5.20;99.90;;;;;;5077291;28;20468;-78
2024/01/06 03:00:21;;;;;;;2.43;0.60;;;5.20;99.90;;;;;;5077203;28;20487;-78
2024/01/06 03:02:47;;;;;;;0.87;0.70;;;5.10;99.90;;;;;;5077459;28;20448;-78
2024/01/06 03:05:14;;;;;;;0.43;0.43;;;5.10;99.90;;;;;;5077848;28;20440;-78
2024/01/06 03:07:41;;;;;;;2.97;0.67;;;5.10;99.90;;;;;;5077384;28;20460;-78
2024/01/06 03:10:08;;;;;;;9.27;0.90;;;5.10;99.90;;;;;;5077198;28;20484;-78
2024/01/06 03:12:34;;;;;;;0.80;0.50;;;5.00;99.90;;;;;;5077105;28;20445;-78
2024/01/06 03:15:02;;;;;;;0.60;0.60;;;5.00;99.90;;;;;;5077556;28;20453;-78
2024/01/06 03:17:29;;;;;;;1.73;0.40;;;5.00;99.90;;;;;;5076968;28;20539;-78
2024/01/06 03:19:56;;;;;;;0.40;0.30;;;5.00;99.90;;;;;;5077303;28;20803;-78
2024/01/06 03:22:23;;;;;;;0.60;0.60;;;5.10;99.90;;;;;;5077019;28;20857;-78
2024/01/06 03:24:49;;;;;;;1.70;0.70;;;5.00;99.90;;;;;;5077351;28;20453;-78
2024/01/06 03:27:16;;;;;;;0.90;0.60;;;5.00;99.90;;;;;;5076737;28;20441;-78
2024/01/06 03:29:43;;;;;;;0.50;0.40;;;5.00;99.90;;;;;;5076633;28;21001;-78
2024/01/06 03:32:11;;;;;;;0.60;0.43;;;5.00;99.90;;;;;;5076558;28;20539;-78
2024/01/06 03:34:37;;;;;;;0.53;0.53;;;5.00;99.90;;;;;;5076551;28;20498;-78
2024/01/06 03:37:04;;;;;;;0.53;0.50;;;5.10;99.90;;;;;;5076674;28;20444;-78
2024/01/06 03:39:31;;;;;;;1.70;0.60;;;5.00;99.90;;;;;;5076351;28;20471;-78
2024/01/06 03:41:58;;;;;;;0.50;0.50;;;5.00;99.90;;;;;;5076163;28;20506;-78
2024/01/06 03:44:25;;;;;;;1.00;0.50;;;5.00;99.90;;;;;;5076497;28;20448;-78
2024/01/06 03:46:51;;;;;;;0.60;0.60;;;5.10;99.90;;;;;;5078297;28;20470;-78
2024/01/06 03:49:20;;;;;;;0.50;0.40;;;5.10;99.90;;;;;;5093798;28;20461;-78
2024/01/06 03:51:47;;;;;;;0.40;0.40;;;5.10;99.90;;;;;;5084824;28;20480;-78
2024/01/06 03:54:14;;;;;;;0.37;0.37;;;5.10;99.90;;;;;;5077230;28;20458;-78
2024/01/06 03:56:40;;;;;;;0.50;0.50;;;5.10;99.90;;;;;;5076917;28;20436;-78
2024/01/06 03:59:07;;;;;;;0.40;0.37;;;5.10;99.90;;;;;;5076711;28;20469;-78
2024/01/06 04:01:35;;;;;;;0.30;0.30;;;5.10;99.90;;;;;;5077414;28;20440;-78
2024/01/06 04:04:03;;;;;;;0.30;0.30;;;5.10;99.90;;;;;;5077227;28;20481;-78
2024/01/06 04:06:32;;;;;;;1.50;0.40;;;5.10;99.90;;;;;;5076574;28;20484;-78
2024/01/06 04:08:58;;;;;;;0.60;0.60;;;5.10;99.90;;;;;;5076478;28;20500;-78
2024/01/06 04:11:25;;;;;;;1.80;0.47;;;5.10;99.90;;;;;;5076666;28;20483;-78
2024/01/06 04:13:52;;;;;;;3.60;0.90;;;5.10;99.90;;;;;;5076263;28;20930;-78
2024/01/06 04:16:19;;;;;;;0.53;0.30;;;5.10;99.90;;;;;;5076166;28;20808;-78
2024/01/06 04:18:45;;;;;;;1.53;0.40;;;5.10;99.90;;;;;;5076048;28;20468;-78
2024/01/06 04:21:12;;;;;;;0.40;0.30;;;5.10;99.90;;;;;;5076457;28;20445;-78
2024/01/06 04:23:40;;;;;;;0.50;0.40;;;5.00;99.90;;;;;;5076277;28;20483;-77
2024/01/06 04:26:07;;;;;;;1.17;0.30;;;5.00;99.90;;;;;;5075974;28;20785;-78
2024/01/06 04:28:33;;;;;;;0.30;0.20;;;5.00;99.90;;;;;;5075968;28;20462;-78
2024/01/06 04:31:00;;;;;;;0.40;0.33;;;5.00;99.90;;;;;;5075881;28;20489;-78
2024/01/06 04:33:26;;;;;;;0.70;0.40;;;5.00;99.90;;;;;;5076216;28;20449;-78
2024/01/06 04:35:53;;;;;;;0.70;0.60;;;5.00;99.90;;;;;;5076685;28;20452;-78
2024/01/06 04:38:20;;;;;;;12.10;0.63;;;5.00;99.90;;;;;;5076337;28;20472;-78
2024/01/06 04:40:48;;;;;;;0.30;0.30;;;5.00;99.90;;;;;;5076178;28;20441;-78
2024/01/06 04:43:15;;;;;;;0.40;0.30;;;5.00;99.90;;;;;;5075844;28;20452;-78
2024/01/06 04:45:41;;;;;;;3.43;0.50;;;5.00;99.90;;;;;;5075929;28;20495;-78
2024/01/06 04:48:08;;;;;;;4.73;0.57;;;5.00;99.90;;;;;;5075203;28;20869;-78
2024/01/06 04:50:35;;;;;;;0.50;0.50;;;5.10;99.90;;;;;;5075379;28;20893;-78
2024/01/06 04:53:01;;;;;;;1.63;0.80;;;5.10;99.90;;;;;;5074784;28;20837;-78
2024/01/06 04:55:28;;;;;;;1.30;1.20;;;5.10;99.90;;;;;;5075413;28;20441;-78
2024/01/06 04:57:56;;;;;;;0.50;0.40;;;5.10;99.90;;;;;;5075205;28;20507;-78
2024/01/06 05:00:24;;;;;;;0.77;0.40;;;5.00;99.90;;;;;;5075022;28;20437;-78
2024/01/06 05:02:50;;;;;;;0.77;0.50;;;5.00;99.90;;;;;;5073878;28;20452;-78
2024/01/06 05:05:17;;;;;;;0.50;0.50;;;5.00;99.90;;;;;;5074194;28;20530;-78
2024/01/06 05:07:44;;;;;;;0.50;0.50;;;5.00;99.90;;;;;;5074585;28;20464;-78
2024/01/06 05:10:10;;;;;;;3.07;0.60;;;5.00;99.90;;;;;;5074745;28;20452;-78
2024/01/06 05:12:37;;;;;;;1.33;0.63;;;5.10;99.90;;;;;;5074471;28;20449;-78
2024/01/06 05:15:06;;;;;;;0.40;0.40;;;5.10;99.90;;;;;;5074247;28;20447;-78
2024/01/06 05:17:32;;;;;;;0.60;0.60;;;5.10;99.90;;;;;;5074621;28;20848;-78
2024/01/06 05:20:00;;;;;;;0.40;0.30;;;5.10;99.90;;;;;;5074773;28;20445;-78
2024/01/06 05:22:27;;;;;;;0.43;0.33;;;5.10;99.90;;;;;;5074229;28;20475;-78
2024/01/06 05:24:54;;;;;;;1.50;0.50;;;5.10;99.90;;;;;;5074443;28;20934;-78
2024/01/06 05:27:20;;;;;;;0.40;0.30;;;5.10;99.90;;;;;;5074419;28;20457;-78
2024/01/06 05:29:48;;;;;;;0.40;0.40;;;5.10;99.90;;;;;;5075108;28;20448;-78
2024/01/06 05:32:17;;;;;;;0.70;0.40;;;5.10;99.90;;;;;;5074535;28;20485;-78
2024/01/06 05:34:44;;;;;;;2.30;0.60;;;5.10;99.90;;;;;;5074362;28;20441;-78
2024/01/06 05:37:11;;;;;;;1.13;0.40;;;5.10;99.90;;;;;;5074786;28;20506;-78
2024/01/06 05:39:38;;;;;;;0.33;0.27;;;5.10;99.90;;;;;;5074464;28;20473;-78
2024/01/06 05:42:06;;;;;;;0.40;0.40;;;5.10;99.90;;;;;;5074389;28;20472;-78
2024/01/06 05:44:35;;;;;;;1.20;0.73;;;5.10;99.90;;;;;;5074347;28;20457;-78
2024/01/06 05:47:02;;;;;;;0.40;0.30;;;5.20;99.90;;;;;;5074213;28;20440;-78
2024/01/06 05:49:30;;;;;;;0.40;0.40;;;5.20;99.90;;;;;;5074019;28;20465;-78
2024/01/06 05:51:57;;;;;;;0.30;0.30;;;5.20;99.90;;;;;;5073891;28;20876;-78
2024/01/06 05:54:24;;;;;;;0.60;0.33;;;5.20;99.90;;;;;;5074308;28;20450;-78
2024/01/06 05:56:51;;;;;;;1.93;0.73;;;5.20;99.90;;;;;;5074087;28;20494;-78
2024/01/06 05:59:18;;;;;;;0.67;0.37;;;5.20;99.90;;;;;;5074122;28;20464;-78
2024/01/06 06:01:44;;;;;;;0.30;0.30;;;5.20;99.90;;;;;;5076834;28;20441;-78
2024/01/06 06:04:11;;;;;;;0.43;0.30;;;5.20;99.90;;;;;;5074917;28;20457;-78
2024/01/06 06:06:39;;;;;;;0.80;0.80;;;5.20;99.90;;;;;;5076891;28;20516;-78
2024/01/06 06:09:07;;;;;;;0.40;0.40;;;5.30;99.90;;;;;;5075466;28;20472;-78
2024/01/06 06:11:33;;;;;;;0.30;0.30;;;5.30;99.90;;;;;;5076095;28;20477;-78
2024/01/06 06:14:02;;;;;;;0.40;0.40;;;5.30;99.90;;;;;;5077681;28;20444;-78
2024/01/06 06:16:29;;;;;;;0.40;0.30;;;5.30;99.90;;;;;;5078898;28;20447;-78
2024/01/06 06:18:56;;;;;;;0.33;0.30;;;5.30;99.90;;;;;;5079262;28;20468;-78
2024/01/06 06:21:23;;;;;;;0.47;0.33;;;5.30;99.90;;;;;;5079388;28;20444;-78
2024/01/06 06:23:51;;;;;;;0.50;0.50;;;5.30;99.90;;;;;;5078811;28;20950;-78
2024/01/06 06:26:18;;;;;;;0.50;0.50;;;5.30;99.90;;;;;;5079174;28;20453;-78
2024/01/06 06:28:44;;;;;;;1.33;0.50;;;5.40;99.90;;;;;;5078898;28;20453;-78
2024/01/06 06:31:11;;;;;;;0.50;0.50;;;5.30;99.90;;;;;;5078858;28;20480;-78
2024/01/06 06:33:39;;;;;;;1.23;0.40;;;5.30;99.90;;;;;;5079203;28;20440;-78
2024/01/06 06:36:06;;;;;;;0.50;0.50;;;5.40;99.90;;;;;;5079120;28;20535;-78
2024/01/06 06:38:32;;;;;;;0.80;0.73;;;5.40;99.90;;;;;;5092598;28;20528;-78
2024/01/06 06:41:00;;;;;;;1.77;0.50;;;5.40;99.90;;;;;;5096641;28;20447;-78
2024/01/06 06:43:27;;;;;;;0.40;0.30;;;5.30;99.90;;;;;;5077897;28;20476;-78
2024/01/06 06:45:55;;;;;;;9.20;0.73;;;5.40;99.90;;;;;;5077491;28;20448;-78
2024/01/06 06:48:22;;;;;;;0.50;0.40;;;5.30;99.90;;;;;;5077010;28;20518;-78
2024/01/06 06:50:48;;;;;;;0.53;0.50;;;5.40;99.90;;;;;;5076957;28;20483;-78
2024/01/06 06:53:15;;;;;;;0.40;0.40;;;5.30;99.90;;;;;;5076993;28;20440;-78
2024/01/06 06:55:42;;;;;;;0.30;0.30;;;5.30;99.90;;;;;;5077166;28;20494;-78
2024/01/06 06:58:10;;;;;;;0.43;0.43;;;5.30;99.90;;;;;;5076956;28;20457;-78
2024/01/06 07:00:37;;;;;;;0.63;0.43;;;5.30;99.90;;;;;;5076814;28;20456;-78
2024/01/06 07:03:04;;;;;;;0.50;0.50;;;5.30;99.90;;;;;;5076953;28;20480;-78
2024/01/06 07:05:31;;;;;;;0.60;0.47;;;5.30;99.90;;;;;;5076581;28;20491;-78
2024/01/06 07:08:00;;;;;;;0.80;0.80;;;5.40;99.90;;;;;;5076934;28;20464;-78
2024/01/06 07:10:27;;;;;;;0.40;0.40;;;5.30;99.90;;;;;;5076706;28;20449;-78
2024/01/06 07:12:54;;;;;;;0.50;0.50;;;5.30;99.90;;;;;;5076341;28;20476;-78
2024/01/06 07:15:22;;;;;;;15.93;0.60;;;5.30;99.90;;;;;;5076721;28;20440;-78
2024/01/06 07:17:48;;;;;;;0.97;0.60;;;5.30;99.90;;;;;;5076304;28;21047;-78
2024/01/06 07:20:15;;;;;;;0.50;0.50;;;5.30;99.90;;;;;;5076551;28;20441;-78
2024/01/06 07:22:42;;;;;;;0.97;0.47;;;5.30;99.90;;;;;;5076487;28;20441;-78
2024/01/06 07:25:09;;;;;;;0.87;0.57;;;5.30;99.90;;;;;;5075651;28;20425;-78
2024/01/06 07:27:35;;;;;;;2.20;0.70;;;5.30;99.90;;;;;;5076745;28;20543;-78
2024/01/06 07:30:02;;;;;;;0.40;0.33;;;5.30;99.90;;;;;;5076388;28;20444;-78
2024/01/06 07:32:30;;;;;;;0.43;0.43;;;5.30;99.90;;;;;;5076061;28;20485;-78
2024/01/06 07:34:56;;;;;;;0.40;0.40;;;5.30;99.90;;;;;;5075934;28;21034;-78
2024/01/06 07:37:23;;;;;;;0.50;0.40;;;5.30;99.90;;;;;;5075857;28;20945;-78
2024/01/06 07:39:50;;;;;;;1.27;0.70;;;5.30;99.90;;;;;;5075918;28;20441;-78
2024/01/06 07:42:17;;;;;;;0.53;0.40;;;5.30;99.90;;;;;;5076169;28;20441;-78
2024/01/06 07:44:44;;;;;;;0.93;0.50;;;5.30;99.90;;;;;;5076243;28;20437;-78
2024/01/06 07:47:10;;;;;;;0.40;0.40;;;5.30;99.90;;;;;;5075992;28;20444;-78
2024/01/06 07:49:38;;;;;;;0.53;0.50;;;5.30;99.90;;;;;;5075898;28;20472;-78
2024/01/06 07:52:05;;;;;;;0.47;0.47;;;5.30;99.90;;;;;;5075575;28;20492;-78
2024/01/06 07:54:32;;;;;;;0.50;0.50;;;5.30;99.90;;;;;;5075961;28;20425;-78
2024/01/06 07:56:59;;;;;;;0.77;0.77;;;5.20;99.90;;;;;;5076897;28;20455;-78
2024/01/06 07:59:26;;;;;;;0.53;0.53;;;5.20;99.90;;;;;;5075889;28;20465;-78
2024/01/06 08:01:52;;;;;;;0.60;0.40;;;5.20;99.90;;;;;;5076323;28;20421;-78
2024/01/06 08:04:19;;;;;;;0.40;0.33;;;5.20;99.90;;;;;;5075906;28;20444;-78
2024/01/06 08:06:47;;;;;;;0.87;0.47;;;5.30;99.90;;;;;;5075529;28;20492;-78
2024/01/06 08:09:14;;;;;;;0.50;0.40;;;5.20;99.90;;;;;;5075434;28;20468;-78
2024/01/06 08:11:42;;;;;;;0.43;0.43;;;5.30;99.90;;;;;;5075751;28;20567;-78
2024/01/06 08:14:10;;;;;;;0.53;0.50;;;5.30;99.90;;;;;;5078350;28;20449;-79
2024/01/06 08:16:37;;;;;;;1.17;0.57;;;5.40;99.90;;;;;;5076652;28;20456;-78
2024/01/06 08:19:04;;;;;;;0.30;0.30;;;5.40;99.90;;;;;;5076359;28;20480;-78
2024/01/06 08:21:30;;;;;;;0.63;0.60;;;5.60;99.90;;;;;;5076575;28;20437;-78
2024/01/06 08:23:58;;;;;;;0.40;0.40;;;5.60;99.90;;;;;;5075895;28;20451;-78
2024/01/06 08:26:25;;;;;;;0.30;0.30;;;5.60;99.90;;;;;;5076932;28;20466;-78
2024/01/06 08:28:54;;;;;;;0.50;0.40;;;5.70;99.90;;;;;;5080468;28;20468;-78
2024/01/06 08:31:22;;;;;;;0.80;0.57;;;5.70;99.90;;;;;;5077545;28;20504;-78
2024/01/06 08:33:48;;;;;;;0.50;0.40;;;5.80;99.90;;;;;;5075160;28;20448;-78
2024/01/06 08:36:15;;;;;;;7.70;0.70;;;5.90;99.90;;;;;;5074983;28;20441;-78
2024/01/06 08:38:42;;;;;;;1.10;0.77;;;5.90;99.90;;;;;;5074589;28;20464;-78
2024/01/06 08:41:10;;;;;;;0.40;0.30;;;6.00;99.90;;;;;;5074844;28;20441;-78
2024/01/06 08:43:36;;;;;;;0.50;0.40;;;6.00;99.90;;;;;;5075024;28;20467;-78
2024/01/06 08:46:03;;;;;;;0.40;0.40;;;6.00;99.90;;;;;;5075115;28;20457;-78
2024/01/06 08:48:30;;;;;;;1.70;0.70;;;6.00;99.90;;;;;;5074641;28;20464;-78
2024/01/06 08:50:56;;;;;;;0.40;0.40;;;6.00;99.90;;;;;;5074804;28;20926;-78
2024/01/06 08:53:23;;;;;;;0.50;0.40;;;6.00;99.90;;;;;;5075972;28;20485;-79
2024/01/06 08:55:50;;;;;;;0.40;0.40;;;6.00;99.90;;;;;;5076711;28;20456;-79
2024/01/06 08:58:18;;;;;;;1.27;0.40;;;6.00;99.90;;;;;;5076794;28;20514;-78
2024/01/06 09:00:45;;;;;;;0.50;0.50;;;6.00;99.90;;;;;;5077267;28;20848;-79
2024/01/06 09:03:12;;;;;;;0.60;0.60;;;6.00;99.90;;;;;;5079125;28;20460;-79
2024/01/06 09:05:39;;;;;;;0.70;0.53;;;6.00;99.90;;;;;;5078319;28;20483;-79
2024/01/06 09:08:07;;;;;;;0.73;0.70;;;6.00;99.90;;;;;;5078783;28;20468;-78
2024/01/06 09:10:33;;;;;;;0.50;0.40;;;6.00;99.90;;;;;;5078343;28;20519;-78
2024/01/06 09:13:01;;;;;;;0.70;0.57;;;6.00;99.90;;;;;;5078196;28;20488;-78
2024/01/06 09:15:29;;;;;;;2.60;0.67;;;6.10;99.90;;;;;;5078098;28;20479;-78
2024/01/06 09:17:56;;;;;;;0.50;0.50;;;6.10;99.90;;;;;;5078332;28;20468;-78
2024/01/06 09:20:23;;;;;;;2.77;0.40;;;6.20;99.90;;;;;;5078648;28;20445;-78
2024/01/06 09:22:50;;;;;;;1.00;0.63;;;6.20;99.90;;;;;;5078210;28;20448;-79
2024/01/06 09:25:16;;;;;;;0.50;0.50;;;6.20;99.90;;;;;;5077172;28;20968;-78
2024/01/06 09:27:43;;;;;;;0.40;0.40;;;6.20;99.90;;;;;;5076753;28;20465;-78
2024/01/06 09:30:11;;;;;;;2.10;0.60;;;6.20;99.90;;;;;;5077127;28;20449;-78
2024/01/06 09:32:39;;;;;;;0.50;0.50;;;6.20;99.90;;;;;;5077912;28;20507;-78
2024/01/06 09:35:06;;;;;;;0.50;0.40;;;6.30;99.90;;;;;;5079773;28;20445;-78
2024/01/06 09:37:33;;;;;;;0.40;0.40;;;6.20;99.90;;;;;;5086602;28;20448;-79
2024/01/06 09:40:00;;;;;;;0.70;0.30;;;6.20;99.90;;;;;;5085021;28;20950;-79
2024/01/06 09:42:27;;;;;;;0.60;0.40;;;6.20;99.90;;;;;;5085340;28;20437;-80
2024/01/06 09:44:54;;;;;;;0.50;0.40;;;6.20;99.90;;;;;;5080670;28;20453;-78
2024/01/06 09:47:23;;;;;;;0.50;0.30;;;6.30;99.90;;;;;;5077766;28;20445;-79
2024/01/06 09:49:52;;;;;;;1.17;0.60;;;6.30;99.90;;;;;;5082243;28;20440;-79
2024/01/06 09:52:23;;;;;;;3.27;0.67;;;6.40;99.90;;;;;;5083094;28;21130;-79
2024/01/06 09:54:53;;;;;;;0.50;0.40;;;6.40;99.90;;;;;;5083167;28;20445;-79
2024/01/06 09:57:20;;;;;;;0.47;0.40;;;6.40;99.90;;;;;;5081756;28;20447;-79
2024/01/06 09:59:47;;;;;;;0.40;0.40;;;6.50;99.90;;;;;;5081169;28;20814;-79
2024/01/06 10:02:22;;;;;;;0.30;0.30;;;6.50;99.90;;;;;;5081823;28;20445;-80
2024/01/06 10:04:51;;;;;;;0.40;0.30;;;6.50;99.90;;;;;;5080783;28;20902;-78
2024/01/06 10:07:18;;;;;;;0.30;0.30;;;6.60;99.90;;;;;;5080631;28;20580;-78
2024/01/06 10:09:44;;;;;;;0.30;0.30;;;6.70;99.90;;;;;;5080933;28;20445;-78
2024/01/06 10:12:14;;;;;;;1.97;0.40;;;6.80;99.90;;;;;;5082307;28;20485;-80
2024/01/06 10:14:41;;;;;;;0.40;0.30;;;6.90;99.90;;;;;;5082058;28;20437;-81
2024/01/06 10:17:08;;;;;;;0.40;0.40;;;6.90;99.90;;;;;;5081445;28;20480;-80
2024/01/06 10:19:35;;;;;;;0.30;0.30;;;7.00;99.90;;;;;;5080704;28;20475;-80
2024/01/06 10:22:04;;;;;;;0.30;0.30;;;7.00;99.90;;;;;;5080429;28;20440;-80
2024/01/06 10:24:31;;;;;;;0.40;0.30;;;7.10;99.90;;;;;;5080574;28;20478;-80
2024/01/06 10:26:58;;;;;;;0.30;0.30;;;7.10;99.90;;;;;;5080586;28;20930;-80
2024/01/06 10:29:26;;;;;;;0.40;0.40;;;7.10;99.90;;;;;;5080695;28;20461;-80
2024/01/06 10:31:53;;;;;;;0.30;0.30;;;7.20;99.90;;;;;;5080494;28;20444;-80
2024/01/06 10:34:20;;;;;;;0.40;0.30;;;7.30;99.90;;;;;;5080503;28;20448;-80
2024/01/06 10:36:47;;;;;;;0.40;0.33;;;7.30;99.90;;;;;;5080093;28;20444;-80
2024/01/06 10:39:16;;;;;;;0.50;0.40;;;7.30;99.90;;;;;;5081523;28;20844;-79
2024/01/06 10:41:47;;;;;;;0.60;0.60;;;7.30;99.90;;;;;;5081472;28;20441;-79
2024/01/06 10:44:18;;;;;;;1.27;0.40;;;7.30;99.90;;;;;;5081044;28;20515;-79
2024/01/06 10:46:46;;;;;;;1.23;0.40;;;7.30;99.90;;;;;;5081432;28;20465;-78
2024/01/06 10:49:15;;;;;;;0.40;0.30;;;7.20;99.90;;;;;;5082821;28;20452;-78
2024/01/06 10:51:42;;;;;;;1.70;0.50;;;7.20;99.90;;;;;;5079770;28;20467;-79
2024/01/06 10:54:10;;;;;;;0.40;0.40;;;7.10;99.90;;;;;;5081938;28;20437;-79
2024/01/06 10:56:39;;;;;;;0.40;0.40;;;7.10;99.90;;;;;;5078086;28;20957;-78
2024/01/06 10:59:07;;;;;;;0.30;0.30;;;7.00;99.90;;;;;;5077268;28;20559;-79
2024/01/06 11:01:35;;;;;;;0.30;0.30;;;6.90;99.90;;;;;;5078219;28;20449;-79
2024/01/06 11:04:04;;;;;;;0.40;0.40;;;6.90;99.90;;;;;;5078515;28;20445;-79
2024/01/06 11:06:31;;;;;;;0.40;0.30;;;6.80;99.90;;;;;;5077575;28;20572;-80
2024/01/06 11:09:05;;;;;;;0.40;0.40;;;6.80;99.90;;;;;;5079177;28;20475;-80
2024/01/06 11:11:32;;;;;;;0.30;0.30;;;6.80;99.90;;;;;;5078412;28;20440;-79
2024/01/06 11:14:22;;;;;;;0.40;0.40;;;6.80;99.90;;;;;;5077831;28;20480;-79
2024/01/06 11:16:49;;;;;;;0.40;0.40;;;6.80;99.90;;;;;;5078693;28;20972;-79
2024/01/06 11:19:45;;;;;;;1.10;0.47;;;6.70;99.90;;;;;;5077174;28;20564;-79
2024/01/06 11:22:23;;;;;;;2.87;0.30;;;6.70;99.90;;;;;;5078607;28;20833;-78
2024/01/06 11:24:52;;;;;;;0.40;0.30;;;6.70;99.90;;;;;;5077318;28;20934;-78
2024/01/06 11:27:20;;;;;;;1.40;0.57;;;6.70;99.90;;;;;;5077371;28;20449;-78
2024/01/06 11:29:48;;;;;;;0.47;0.47;;;6.80;99.90;;;;;;5078042;28;20487;-78
2024/01/06 11:32:26;;;;;;;0.60;0.50;;;6.90;99.90;;;;;;5078269;28;20512;-79
2024/01/06 11:34:55;;;;;;;0.70;0.40;;;7.10;99.90;;;;;;5078046;28;20433;-79
2024/01/06 11:37:25;;;;;;;0.40;0.40;;;7.20;99.90;;;;;;5076930;28;20954;-78
2024/01/06 11:39:52;;;;;;;0.57;0.57;;;7.40;99.90;;;;;;5076900;28;20421;-79
2024/01/06 11:42:19;;;;;;;0.30;0.30;;;7.40;99.90;;;;;;5076470;28;20551;-79
2024/01/06 11:44:52;;;;;;;0.40;0.30;;;7.40;99.90;;;;;;5077057;28;20488;-79
2024/01/06 11:47:23;;;;;;;0.30;0.20;;;7.40;99.90;;;;;;5076696;28;20437;-80
2024/01/06 11:49:56;;;;;;;0.40;0.30;;;7.40;99.90;;;;;;5077075;28;20429;-79
2024/01/06 11:52:25;;;;;;;0.33;0.33;;;7.40;99.90;;;;;;5076939;28;20507;-79
2024/01/06 11:54:52;;;;;;;1.13;0.40;;;7.40;99.90;;;;;;5076872;28;20453;-79
2024/01/06 11:57:19;;;;;;;0.40;0.30;;;7.50;99.90;;;;;;5076420;28;20452;-79
2024/01/06 11:59:47;;;;;;;2.30;0.30;;;7.60;99.90;;;;;;5077810;28;20451;-79
2024/01/06 12:02:15;;;;;;;0.40;0.30;;;7.60;99.90;;;;;;5076671;28;20449;-78
2024/01/06 12:04:42;;;;;;;0.30;0.30;;;7.80;99.90;;;;;;5076308;28;20812;-79
2024/01/06 12:07:13;;;;;;;0.40;0.30;;;7.80;99.90;;;;;;5075958;28;20916;-78
2024/01/06 12:09:39;;;;;;;0.40;0.30;;;7.90;99.90;;;;;;5076401;28;20491;-78
2024/01/06 12:12:07;;;;;;;0.40;0.30;;;8.00;99.90;;;;;;5075428;28;20476;-79
2024/01/06 12:14:34;;;;;;;0.47;0.40;;;8.00;99.90;;;;;;5076146;28;20441;-78
2024/01/06 12:17:02;;;;;;;0.40;0.40;;;7.90;99.90;;;;;;5076168;28;20447;-78
2024/01/06 12:19:31;;;;;;;0.30;0.30;;;7.80;99.90;;;;;;5075874;28;20538;-79
2024/01/06 12:21:58;;;;;;;0.33;0.33;;;7.70;99.90;;;;;;5075937;28;20432;-78
2024/01/06 12:24:27;;;;;;;0.40;0.30;;;7.50;99.90;;;;;;5075638;28;20440;-79
2024/01/06 12:26:56;;;;;;;0.30;0.30;;;7.40;99.90;;;;;;5076397;28;20444;-79
2024/01/06 12:29:22;;;;;;;0.50;0.30;;;7.40;99.90;;;;;;5075808;28;20457;-79
2024/01/06 12:31:49;;;;;;;0.30;0.30;;;7.20;99.90;;;;;;5075760;28;20437;-78
2024/01/06 12:34:16;;;;;;;0.40;0.40;;;7.20;99.90;;;;;;5075553;28;20477;-79
2024/01/06 12:36:46;;;;;;;0.40;0.30;;;7.20;99.90;;;;;;5075440;28;20440;-78
2024/01/06 12:39:14;;;;;;;0.30;0.30;;;7.20;99.90;;;;;;5076801;28;20461;-79
2024/01/06 12:41:41;;;;;;;0.30;0.30;;;7.20;99.90;;;;;;5076888;28;20498;-78
2024/01/06 12:44:08;;;;;;;0.40;0.33;;;7.20;99.90;;;;;;5076689;28;20444;-78
2024/01/06 12:46:35;;;;;;;0.63;0.40;;;7.20;99.90;;;;;;5094524;28;20433;-78
2024/01/06 12:49:02;;;;;;;0.80;0.27;;;7.20;99.90;;;;;;5094183;28;20491;-78
2024/01/06 12:51:29;;;;;;;0.30;0.30;;;7.20;99.90;;;;;;5083241;28;20510;-79
2024/01/06 12:53:57;;;;;;;0.30;0.30;;;7.10;99.90;;;;;;5079286;28;20476;-81
2024/01/06 12:56:24;;;;;;;0.30;0.30;;;7.10;99.90;;;;;;5078345;28;20542;-79
2024/01/06 12:58:51;;;;;;;0.50;0.50;;;7.10;99.90;;;;;;5076036;28;20457;-79